createdAt,value
2023-04-16T00:01:19.927Z,5.88
2023-04-16T00:04:25.696Z,5.90
2023-04-16T00:07:34.812Z,5.89
2023-04-16T00:10:40.358Z,5.84
2023-04-16T00:13:46.802Z,5.75
2023-04-16T00:16:52.317Z,5.64
2023-04-16T00:19:58.672Z,5.56
2023-04-16T00:23:06.974Z,5.52
2023-04-16T00:26:13.371Z,5.45
2023-04-16T00:29:21.604Z,5.36
2023-04-16T00:32:28.225Z,5.37
2023-04-16T00:35:33.930Z,5.27
2023-04-16T00:38:43.333Z,5.25
2023-04-16T00:41:49.577Z,5.25
2023-04-16T00:44:56.071Z,5.28
2023-04-16T00:48:04.016Z,5.31
2023-04-16T00:51:11.971Z,5.28
2023-04-16T00:54:20.456Z,5.26
2023-04-16T00:57:27.375Z,5.21
2023-04-16T01:00:33.004Z,5.18
2023-04-16T01:03:43.750Z,5.17
2023-04-16T01:06:49.353Z,5.12
2023-04-16T01:09:58.684Z,5.05
2023-04-16T01:13:04.476Z,5.01
2023-04-16T01:16:13.129Z,5.00
2023-04-16T01:19:18.726Z,4.99
2023-04-16T01:22:27.846Z,5.10
2023-04-16T01:25:33.334Z,5.15
2023-04-16T01:28:39.678Z,5.02
2023-04-16T01:31:46.934Z,4.97
2023-04-16T01:35:01.723Z,4.97
2023-04-16T01:38:12.770Z,4.94
2023-04-16T01:41:21.172Z,4.91
2023-04-16T01:44:26.712Z,4.88
2023-04-16T01:47:33.305Z,4.91
2023-04-16T01:50:39.245Z,4.95
2023-04-16T01:53:48.426Z,5.01
2023-04-16T01:56:54.804Z,5.05
2023-04-16T02:00:00.576Z,5.12
2023-04-16T02:03:07.888Z,5.12
2023-04-16T02:06:13.531Z,5.01
2023-04-16T02:09:22.896Z,4.85
2023-04-16T02:12:29.004Z,4.66
2023-04-16T02:15:35.900Z,4.58
2023-04-16T02:18:41.536Z,4.42
2023-04-16T02:21:48.353Z,4.36
2023-04-16T02:24:56.717Z,4.38
2023-04-16T02:28:03.262Z,4.45
2023-04-16T02:31:13.918Z,4.53
2023-04-16T02:34:23.971Z,4.58
2023-04-16T02:37:30.185Z,4.61
2023-04-16T02:40:39.778Z,4.68
2023-04-16T02:43:45.272Z,4.69
2023-04-16T02:46:51.623Z,4.71
2023-04-16T02:49:57.280Z,4.71
2023-04-16T02:53:04.588Z,4.71
2023-04-16T02:56:13.211Z,4.64
2023-04-16T02:59:19.798Z,4.57
2023-04-16T03:02:25.611Z,4.57
2023-04-16T03:05:32.331Z,4.58
2023-04-16T03:08:37.807Z,4.53
2023-04-16T03:11:47.138Z,4.50
2023-04-16T03:14:54.625Z,4.52
2023-04-16T03:18:01.393Z,4.56
2023-04-16T03:21:07.836Z,4.68
2023-04-16T03:24:14.518Z,4.77
2023-04-16T03:27:22.732Z,4.89
2023-04-16T03:30:29.924Z,5.02
2023-04-16T03:33:36.011Z,5.17
2023-04-16T03:36:43.649Z,5.26
2023-04-16T03:39:49.498Z,5.21
2023-04-16T03:42:58.562Z,5.17
2023-04-16T03:46:06.463Z,5.15
2023-04-16T03:49:13.113Z,5.16
2023-04-16T03:52:19.777Z,5.09
2023-04-16T03:55:27.054Z,5.13
2023-04-16T03:58:35.364Z,5.15
2023-04-16T04:01:41.849Z,5.14
2023-04-16T04:04:47.435Z,5.22
2023-04-16T04:07:55.760Z,5.30
2023-04-16T04:11:01.689Z,5.36
2023-04-16T04:14:11.551Z,5.41
2023-04-16T04:17:17.688Z,5.40
2023-04-16T04:20:24.013Z,5.41
2023-04-16T04:23:30.944Z,5.42
2023-04-16T04:26:37.299Z,5.44
2023-04-16T04:29:45.843Z,5.44
2023-04-16T04:32:52.563Z,5.48
2023-04-16T04:35:58.872Z,5.45
2023-04-16T04:39:07.130Z,5.55
2023-04-16T04:42:13.060Z,5.51
2023-04-16T04:45:25.711Z,5.52
2023-04-16T04:48:33.055Z,5.48
2023-04-16T04:51:39.673Z,5.47
2023-04-16T04:54:45.261Z,5.47
2023-04-16T04:57:52.195Z,5.49
2023-04-16T05:01:01.822Z,5.50
2023-04-16T05:04:08.788Z,5.61
2023-04-16T05:07:14.374Z,5.69
2023-04-16T05:10:20.863Z,5.75
2023-04-16T05:13:26.445Z,5.78
2023-04-16T05:16:35.636Z,5.79
2023-04-16T05:19:41.163Z,5.89
2023-04-16T05:22:47.550Z,5.93
2023-04-16T05:25:53.013Z,5.88
2023-04-16T05:28:59.325Z,5.76
2023-04-16T05:32:07.864Z,5.68
2023-04-16T05:35:16.702Z,5.78
2023-04-16T05:38:23.212Z,5.96
2023-04-16T05:41:29.601Z,6.14
2023-04-16T05:44:35.053Z,6.36
2023-04-16T05:47:44.274Z,6.53
2023-04-16T05:50:50.480Z,6.64
2023-04-16T05:53:56.797Z,6.83
2023-04-16T05:57:03.565Z,6.98
2023-04-16T06:00:11.625Z,7.09
2023-04-16T06:03:22.806Z,7.15
2023-04-16T06:06:29.854Z,7.12
2023-04-16T06:09:36.350Z,7.02
2023-04-16T06:12:42.946Z,6.93
2023-04-16T06:15:48.430Z,6.87
2023-04-16T06:18:57.799Z,6.71
2023-04-16T06:22:03.440Z,6.80
2023-04-16T06:25:11.036Z,6.78
2023-04-16T06:28:16.492Z,6.83
2023-04-16T06:31:23.295Z,6.93
2023-04-16T06:34:32.260Z,7.03
2023-04-16T06:37:38.782Z,7.19
2023-04-16T06:40:44.541Z,7.32
2023-04-16T06:43:51.064Z,7.43
2023-04-16T06:46:56.570Z,7.48
2023-04-16T06:50:05.950Z,7.52
2023-04-16T06:53:11.682Z,7.62
2023-04-16T06:56:18.115Z,7.59
2023-04-16T06:59:23.584Z,7.49
2023-04-16T07:02:30.228Z,7.60
2023-04-16T07:05:38.710Z,7.68
2023-04-16T07:08:45.072Z,7.76
2023-04-16T07:11:50.646Z,7.64
2023-04-16T07:15:04.168Z,7.68
2023-04-16T07:18:09.792Z,7.60
2023-04-16T07:21:18.999Z,7.59
2023-04-16T07:24:24.473Z,7.72
2023-04-16T07:27:30.801Z,7.82
2023-04-16T07:30:37.313Z,7.95
2023-04-16T07:33:43.675Z,8.13
2023-04-16T07:36:52.093Z,8.30
2023-04-16T07:40:00.946Z,8.36
2023-04-16T07:43:06.646Z,8.43
2023-04-16T07:46:12.942Z,8.53
2023-04-16T07:49:18.907Z,8.57
2023-04-16T07:52:28.011Z,8.72
2023-04-16T07:55:33.518Z,8.89
2023-04-16T07:58:40.181Z,8.93
2023-04-16T08:01:45.738Z,8.94
2023-04-16T08:04:52.157Z,8.94
2023-04-16T08:08:00.735Z,9.07
2023-04-16T08:11:07.146Z,9.14
2023-04-16T08:14:12.678Z,9.16
2023-04-16T08:17:19.886Z,9.38
2023-04-16T08:20:25.358Z,9.55
2023-04-16T08:23:34.808Z,9.77
2023-04-16T08:26:40.331Z,9.88
2023-04-16T08:29:46.706Z,9.86
2023-04-16T08:32:53.480Z,10.06
2023-04-16T08:35:59.817Z,10.25
2023-04-16T08:39:08.647Z,10.40
2023-04-16T08:42:27.395Z,10.50
2023-04-16T08:45:34.731Z,10.55
2023-04-16T08:48:42.143Z,10.67
2023-04-16T08:51:54.356Z,10.76
2023-04-16T08:55:10.312Z,10.72
2023-04-16T08:58:19.243Z,10.75
2023-04-16T09:01:28.159Z,10.68
2023-04-16T09:04:36.215Z,10.53
2023-04-16T09:07:45.647Z,10.48
2023-04-16T09:10:54.334Z,10.41
2023-04-16T09:14:01.683Z,10.31
2023-04-16T09:17:09.983Z,10.03
2023-04-16T09:20:16.613Z,9.91
2023-04-16T09:23:22.315Z,9.92
2023-04-16T09:26:31.688Z,10.07
2023-04-16T09:29:39.643Z,10.19
2023-04-16T09:32:46.302Z,10.15
2023-04-16T09:35:54.997Z,10.23
2023-04-16T09:39:02.426Z,10.37
2023-04-16T09:42:12.149Z,10.48
2023-04-16T09:45:18.558Z,10.58
2023-04-16T09:48:34.832Z,10.68
2023-04-16T09:51:41.664Z,10.88
2023-04-16T09:54:52.345Z,11.19
2023-04-16T09:58:05.834Z,11.45
2023-04-16T10:01:14.998Z,11.42
2023-04-16T10:04:22.638Z,11.52
2023-04-16T10:07:33.166Z,11.49
2023-04-16T10:10:39.772Z,11.40
2023-04-16T10:13:48.487Z,11.36
2023-04-16T10:16:56.432Z,11.10
2023-04-16T10:20:04.742Z,11.02
2023-04-16T10:23:11.383Z,10.93
2023-04-16T10:26:17.738Z,10.78
2023-04-16T10:29:30.477Z,10.76
2023-04-16T10:32:41.280Z,10.87
2023-04-16T10:35:57.934Z,10.87
2023-04-16T10:39:17.232Z,11.00
2023-04-16T10:42:31.595Z,11.22
2023-04-16T10:45:41.733Z,11.48
2023-04-16T10:48:50.095Z,11.74
2023-04-16T10:51:58.449Z,11.99
2023-04-16T10:55:04.816Z,12.22
2023-04-16T10:58:31.300Z,12.31
2023-04-16T11:01:44.900Z,12.41
2023-04-16T11:04:52.738Z,12.35
2023-04-16T11:07:59.130Z,12.38
2023-04-16T11:11:08.628Z,12.42
2023-04-16T11:14:16.492Z,12.44
2023-04-16T11:17:25.301Z,12.45
2023-04-16T11:20:32.136Z,12.60
2023-04-16T11:23:50.956Z,12.73
2023-04-16T11:26:57.377Z,12.94
2023-04-16T11:30:05.361Z,13.04
2023-04-16T11:33:16.875Z,13.26
2023-04-16T11:36:22.892Z,13.41
2023-04-16T11:39:30.136Z,13.48
2023-04-16T11:42:37.485Z,13.42
2023-04-16T11:46:00.165Z,13.30
2023-04-16T11:49:09.051Z,13.26
2023-04-16T11:52:16.058Z,13.19
2023-04-16T11:55:22.082Z,12.90
2023-04-16T11:58:28.407Z,13.09
2023-04-16T12:01:34.088Z,13.21
2023-04-16T12:04:43.706Z,13.31
2023-04-16T12:07:49.344Z,13.39
2023-04-16T12:10:59.975Z,13.51
2023-04-16T12:14:12.912Z,13.54
2023-04-16T12:17:23.385Z,13.49
2023-04-16T12:20:44.578Z,13.46
2023-04-16T12:23:57.053Z,13.57
2023-04-16T12:27:03.454Z,13.63
2023-04-16T12:30:12.965Z,13.68
2023-04-16T12:33:21.493Z,13.58
2023-04-16T12:36:31.560Z,13.52
2023-04-16T12:39:37.102Z,13.45
2023-04-16T12:42:43.446Z,13.34
2023-04-16T12:45:49.775Z,13.36
2023-04-16T12:48:57.121Z,13.48
2023-04-16T12:52:06.681Z,13.64
2023-04-16T12:55:14.435Z,13.70
2023-04-16T12:58:19.980Z,13.76
2023-04-16T13:01:27.095Z,13.53
2023-04-16T13:04:32.676Z,13.83
2023-04-16T13:07:42.089Z,13.96
2023-04-16T13:10:47.800Z,13.92
2023-04-16T13:13:54.188Z,13.88
2023-04-16T13:16:59.934Z,13.86
2023-04-16T13:20:06.480Z,13.88
2023-04-16T13:23:15.047Z,13.89
2023-04-16T13:26:21.442Z,13.90
2023-04-16T13:29:27.363Z,13.92
2023-04-16T13:32:33.884Z,14.08
2023-04-16T13:35:39.420Z,14.11
2023-04-16T13:38:48.929Z,14.18
2023-04-16T13:41:54.489Z,14.15
2023-04-16T13:45:01.482Z,14.13
2023-04-16T13:48:07.859Z,14.09
2023-04-16T13:51:15.671Z,13.96
2023-04-16T13:54:23.940Z,13.87
2023-04-16T13:57:31.367Z,13.91
2023-04-16T14:00:37.126Z,13.91
2023-04-16T14:03:43.839Z,13.89
2023-04-16T14:06:49.435Z,13.92
2023-04-16T14:09:58.569Z,13.89
2023-04-16T14:13:04.256Z,13.84
2023-04-16T14:16:11.135Z,13.76
2023-04-16T14:19:17.855Z,13.78
2023-04-16T14:22:24.250Z,13.92
2023-04-16T14:25:32.759Z,13.95
2023-04-16T14:28:39.835Z,13.91
2023-04-16T14:31:45.867Z,13.97
2023-04-16T14:34:52.480Z,13.99
2023-04-16T14:37:59.113Z,14.12
2023-04-16T14:41:08.262Z,14.25
2023-04-16T14:44:14.085Z,14.23
2023-04-16T14:47:20.460Z,14.03
2023-04-16T14:50:26.085Z,13.80
2023-04-16T14:53:32.544Z,13.57
2023-04-16T14:56:41.184Z,13.36
2023-04-16T14:59:48.616Z,13.26
2023-04-16T15:02:54.354Z,13.15
2023-04-16T15:06:01.194Z,13.12
2023-04-16T15:09:07.768Z,13.14
2023-04-16T15:12:19.207Z,13.13
2023-04-16T15:15:25.094Z,13.25
2023-04-16T15:18:32.044Z,13.16
2023-04-16T15:21:37.838Z,13.11
2023-04-16T15:24:44.440Z,13.19
2023-04-16T15:27:53.081Z,13.32
2023-04-16T15:31:00.906Z,13.35
2023-04-16T15:34:06.585Z,13.47
2023-04-16T15:37:13.075Z,13.49
2023-04-16T15:40:19.521Z,13.49
2023-04-16T15:43:31.889Z,13.58
2023-04-16T15:46:37.858Z,13.65
2023-04-16T15:49:45.888Z,13.65
2023-04-16T15:52:51.584Z,13.64
2023-04-16T15:55:58.423Z,13.67
2023-04-16T15:59:07.013Z,13.71
2023-04-16T16:02:13.589Z,13.83
2023-04-16T16:05:20.406Z,13.95
2023-04-16T16:08:26.714Z,14.08
2023-04-16T16:11:32.846Z,14.14
2023-04-16T16:14:44.003Z,14.11
2023-04-16T16:17:49.583Z,14.00
2023-04-16T16:21:00.679Z,13.88
2023-04-16T16:24:06.275Z,13.75
2023-04-16T16:27:12.654Z,13.63
2023-04-16T16:30:20.944Z,13.57
2023-04-16T16:33:28.326Z,13.39
2023-04-16T16:36:36.967Z,13.37
2023-04-16T16:39:43.359Z,13.34
2023-04-16T16:42:48.894Z,13.32
2023-04-16T16:45:58.058Z,13.34
2023-04-16T16:49:05.489Z,13.31
2023-04-16T16:52:12.188Z,13.28
2023-04-16T16:55:18.783Z,13.23
2023-04-16T16:58:25.395Z,13.13
2023-04-16T17:01:35.567Z,13.07
2023-04-16T17:04:41.997Z,12.96
2023-04-16T17:07:47.608Z,12.93
2023-04-16T17:10:54.640Z,12.64
2023-04-16T17:14:00.225Z,12.82
2023-04-16T17:17:09.624Z,12.78
2023-04-16T17:20:15.908Z,12.70
2023-04-16T17:23:22.719Z,12.66
2023-04-16T17:26:28.427Z,12.54
2023-04-16T17:29:34.843Z,12.46
2023-04-16T17:32:43.131Z,12.36
2023-04-16T17:35:49.764Z,12.30
2023-04-16T17:38:55.397Z,12.25
2023-04-16T17:42:03.352Z,12.24
2023-04-16T17:45:10.607Z,12.23
2023-04-16T17:48:20.264Z,12.17
2023-04-16T17:51:26.354Z,12.11
2023-04-16T17:54:32.733Z,12.09
2023-04-16T17:57:38.345Z,12.00
2023-04-16T18:00:46.139Z,12.02
2023-04-16T18:03:54.763Z,12.02
2023-04-16T18:07:01.267Z,11.98
2023-04-16T18:10:07.554Z,11.94
2023-04-16T18:13:13.910Z,11.88
2023-04-16T18:16:20.175Z,11.83
2023-04-16T18:19:29.302Z,11.81
2023-04-16T18:22:34.821Z,11.69
2023-04-16T18:25:41.306Z,11.63
2023-04-16T18:28:46.867Z,11.56
2023-04-16T18:31:55.144Z,11.51
2023-04-16T18:35:04.285Z,11.53
2023-04-16T18:38:10.717Z,11.55
2023-04-16T18:41:20.326Z,11.55
2023-04-16T18:44:26.716Z,11.55
2023-04-16T18:47:32.294Z,11.53
2023-04-16T18:50:41.955Z,11.53
2023-04-16T18:53:47.777Z,11.46
2023-04-16T18:56:54.371Z,11.44
2023-04-16T18:59:59.829Z,11.38
2023-04-16T19:03:07.805Z,11.32
2023-04-16T19:06:16.494Z,11.21
2023-04-16T19:09:23.094Z,11.20
2023-04-16T19:12:29.017Z,11.15
2023-04-16T19:15:35.968Z,11.10
2023-04-16T19:18:41.686Z,11.05
2023-04-16T19:21:50.772Z,10.97
2023-04-16T19:24:56.363Z,10.91
2023-04-16T19:28:02.865Z,10.83
2023-04-16T19:31:08.429Z,10.79
2023-04-16T19:34:15.769Z,10.74
2023-04-16T19:37:24.383Z,10.68
2023-04-16T19:40:30.774Z,10.60
2023-04-16T19:43:37.296Z,10.55
2023-04-16T19:46:43.630Z,10.50
2023-04-16T19:49:49.185Z,10.44
2023-04-16T19:52:58.311Z,10.39
2023-04-16T19:56:03.873Z,10.32
2023-04-16T19:59:10.538Z,10.25
2023-04-16T20:02:16.234Z,10.19
2023-04-16T20:05:22.598Z,10.05
2023-04-16T20:08:31.059Z,9.79
2023-04-16T20:11:37.867Z,9.66
2023-04-16T20:14:44.197Z,9.54
2023-04-16T20:17:50.740Z,9.44
2023-04-16T20:20:56.587Z,9.40
2023-04-16T20:24:05.872Z,9.30
2023-04-16T20:27:11.325Z,9.30
2023-04-16T20:30:19.593Z,9.26
2023-04-16T20:33:25.406Z,9.16
2023-04-16T20:36:32.287Z,9.12
2023-04-16T20:39:45.503Z,9.02
2023-04-16T20:42:54.890Z,8.85
2023-04-16T20:46:03.459Z,8.84
2023-04-16T20:49:10.046Z,8.81
2023-04-16T20:52:16.861Z,8.64
2023-04-16T20:55:26.087Z,8.71
2023-04-16T20:58:31.911Z,8.72
2023-04-16T21:01:39.705Z,8.67
2023-04-16T21:04:46.043Z,8.59
2023-04-16T21:07:54.004Z,8.43
2023-04-16T21:11:04.067Z,8.33
2023-04-16T21:14:10.952Z,8.26
2023-04-16T21:17:16.725Z,8.14
2023-04-16T21:20:23.170Z,8.03
2023-04-16T21:23:28.784Z,8.00
2023-04-16T21:26:38.036Z,7.96
2023-04-16T21:29:43.911Z,7.93
2023-04-16T21:32:50.942Z,7.75
2023-04-16T21:35:58.289Z,7.81
2023-04-16T21:39:04.734Z,7.73
2023-04-16T21:42:14.031Z,7.70
2023-04-16T21:45:20.681Z,7.67
2023-04-16T21:48:27.520Z,7.64
2023-04-16T21:51:33.825Z,7.60
2023-04-16T21:54:39.466Z,7.59
2023-04-16T21:57:48.561Z,7.50
2023-04-16T22:00:54.102Z,7.45
2023-04-16T22:04:02.391Z,7.47
2023-04-16T22:07:09.344Z,7.46
2023-04-16T22:10:16.032Z,7.45
2023-04-16T22:13:24.906Z,7.33
2023-04-16T22:16:31.529Z,7.27
2023-04-16T22:19:37.489Z,7.36
2023-04-16T22:22:44.541Z,7.32
2023-04-16T22:25:49.998Z,6.21
2023-04-16T22:28:59.250Z,7.19
2023-04-16T22:32:04.989Z,7.19
2023-04-16T22:35:13.136Z,7.20
2023-04-16T22:38:19.018Z,7.10
2023-04-16T22:41:25.992Z,7.05
2023-04-16T22:44:34.734Z,7.02
2023-04-16T22:47:41.872Z,6.93
2023-04-16T22:50:51.385Z,6.94
2023-04-16T22:53:57.805Z,6.89
2023-04-16T22:57:04.210Z,6.90
2023-04-16T23:00:16.759Z,6.84
2023-04-16T23:03:22.529Z,6.84
2023-04-16T23:06:29.521Z,6.82
2023-04-16T23:09:35.051Z,6.80
2023-04-16T23:12:41.787Z,6.72
2023-04-16T23:15:50.458Z,6.73
2023-04-16T23:18:56.831Z,6.70
2023-04-16T23:22:02.374Z,6.71
2023-04-16T23:25:10.976Z,6.72
2023-04-16T23:28:16.516Z,6.72
2023-04-16T23:31:25.722Z,6.65
2023-04-16T23:34:31.338Z,6.55
2023-04-16T23:37:37.680Z,6.45
2023-04-16T23:40:43.189Z,6.38
2023-04-16T23:43:49.648Z,6.27
2023-04-16T23:46:58.249Z,6.30
2023-04-16T23:50:04.662Z,6.29
2023-04-16T23:53:10.193Z,6.26
2023-04-16T23:56:16.919Z,6.24
2023-04-16T23:59:22.374Z,6.26
